createdAt,value
2022-12-31T00:00:11.394Z,100591.53
2022-12-31T00:02:38.031Z,100599.78
2022-12-31T00:05:05.017Z,100595.81
2022-12-31T00:09:59.409Z,100593.72
2022-12-31T00:12:25.992Z,100587.59
2022-12-31T00:14:52.538Z,100586.94
2022-12-31T00:17:19.157Z,100589.91
2022-12-31T00:19:45.767Z,100591.12
2022-12-31T00:22:12.313Z,100599.25
2022-12-31T00:24:38.888Z,100599.31
2022-12-31T00:27:05.493Z,100600.31
2022-12-31T00:29:32.062Z,100610.50
2022-12-31T00:31:58.636Z,100615.91
2022-12-31T00:34:25.196Z,100623.59
2022-12-31T00:36:52.840Z,100621.59
2022-12-31T00:39:19.430Z,100618.22
2022-12-31T00:41:46.094Z,100619.53
2022-12-31T00:44:12.867Z,100625.75
2022-12-31T00:49:05.331Z,100611.00
2022-12-31T00:51:31.984Z,100620.84
2022-12-31T00:53:59.216Z,100615.31
2022-12-31T00:56:29.755Z,100628.28
2022-12-31T00:58:56.993Z,100626.75
2022-12-31T01:01:28.113Z,100627.97
2022-12-31T01:03:58.575Z,100638.50
2022-12-31T01:06:25.129Z,100635.97
2022-12-31T01:08:53.157Z,100648.47
2022-12-31T01:11:20.511Z,100635.56
2022-12-31T01:13:56.049Z,100625.12
2022-12-31T01:16:30.350Z,100637.59
2022-12-31T01:19:03.398Z,100634.75
2022-12-31T01:21:30.400Z,100633.81
2022-12-31T01:23:58.187Z,100634.72
2022-12-31T01:26:24.989Z,100636.53
2022-12-31T01:28:51.721Z,100641.03
2022-12-31T01:31:20.281Z,100645.03
2022-12-31T01:33:47.588Z,100640.94
2022-12-31T01:36:26.604Z,100641.13
2022-12-31T01:38:55.421Z,100640.44
2022-12-31T01:41:28.822Z,100634.69
2022-12-31T01:44:01.105Z,100636.91
2022-12-31T01:46:45.513Z,100654.69
2022-12-31T01:49:31.393Z,100649.78
2022-12-31T01:52:22.675Z,100644.31
2022-12-31T01:55:05.918Z,100634.78
2022-12-31T01:57:32.835Z,100645.00
2022-12-31T02:00:01.701Z,100642.69
2022-12-31T02:02:28.694Z,100643.38
2022-12-31T02:04:58.387Z,100639.75
2022-12-31T02:07:25.235Z,100626.87
2022-12-31T02:09:52.204Z,100648.69
2022-12-31T02:12:18.948Z,100656.06
2022-12-31T02:14:51.995Z,100667.16
2022-12-31T02:17:43.782Z,100657.22
2022-12-31T02:20:13.412Z,100653.03
2022-12-31T02:23:04.747Z,100652.00
2022-12-31T02:25:49.103Z,100653.69
2022-12-31T02:28:37.631Z,100652.97
2022-12-31T02:31:12.374Z,100652.12
2022-12-31T02:33:44.678Z,100643.41
2022-12-31T02:36:34.675Z,100643.72
2022-12-31T02:39:04.110Z,100641.81
2022-12-31T02:41:49.261Z,100650.34
2022-12-31T02:44:24.568Z,100657.47
2022-12-31T02:47:13.584Z,100657.31
2022-12-31T02:50:17.506Z,100666.84
2022-12-31T02:53:02.161Z,100663.31
2022-12-31T02:55:53.213Z,100657.56
2022-12-31T02:58:55.382Z,100656.84
2022-12-31T03:01:48.925Z,100653.97
2022-12-31T03:04:32.232Z,100640.53
2022-12-31T03:07:05.913Z,100627.72
2022-12-31T03:09:32.647Z,100636.53
2022-12-31T03:12:18.681Z,100639.84
2022-12-31T03:14:45.368Z,100647.37
2022-12-31T03:17:12.442Z,100636.38
2022-12-31T03:19:57.743Z,100642.81
2022-12-31T03:22:27.468Z,100635.75
2022-12-31T03:25:28.880Z,100618.88
2022-12-31T03:27:55.549Z,100624.31
2022-12-31T03:30:23.967Z,100634.91
2022-12-31T03:32:51.269Z,100641.25
2022-12-31T03:35:20.309Z,100635.62
2022-12-31T03:37:48.354Z,100634.34
2022-12-31T03:40:16.392Z,100633.72
2022-12-31T03:42:43.011Z,100629.84
2022-12-31T03:45:10.919Z,100631.94
2022-12-31T03:47:38.073Z,100632.81
2022-12-31T03:50:06.517Z,100641.28
2022-12-31T03:52:33.117Z,100640.78
2022-12-31T03:54:59.661Z,100634.53
2022-12-31T03:57:26.220Z,100625.12
2022-12-31T03:59:52.813Z,100623.56
2022-12-31T04:02:23.255Z,100637.37
2022-12-31T04:04:54.753Z,100625.84
2022-12-31T04:07:21.333Z,100622.97
2022-12-31T04:09:47.895Z,100622.88
2022-12-31T04:12:14.504Z,100634.78
2022-12-31T04:14:41.271Z,100638.38
2022-12-31T04:17:07.830Z,100630.44
2022-12-31T04:19:34.408Z,100631.50
2022-12-31T04:22:00.984Z,100625.69
2022-12-31T04:24:27.669Z,100646.53
2022-12-31T04:26:54.222Z,100650.91
2022-12-31T04:29:20.842Z,100636.19
2022-12-31T04:31:47.515Z,100643.81
2022-12-31T04:34:14.184Z,100650.06
2022-12-31T04:36:40.769Z,100650.81
2022-12-31T04:39:07.386Z,100663.19
2022-12-31T04:41:34.374Z,100653.03
2022-12-31T04:44:01.113Z,100665.91
2022-12-31T04:46:30.934Z,100664.37
2022-12-31T04:48:57.745Z,100668.03
2022-12-31T04:51:25.355Z,100669.19
2022-12-31T04:53:52.419Z,100666.06
2022-12-31T04:56:19.091Z,100669.22
2022-12-31T04:58:45.883Z,100677.53
2022-12-31T05:01:12.881Z,100677.69
2022-12-31T05:03:39.663Z,100689.22
2022-12-31T05:06:12.043Z,100695.72
2022-12-31T05:08:38.691Z,100698.91
2022-12-31T05:11:05.394Z,100694.41
2022-12-31T05:13:33.669Z,100696.69
2022-12-31T05:16:01.524Z,100694.28
2022-12-31T05:18:28.298Z,100713.16
2022-12-31T05:20:55.128Z,100718.22
2022-12-31T05:23:21.731Z,100715.00
2022-12-31T05:25:48.643Z,100715.19
2022-12-31T05:28:16.016Z,100709.50
2022-12-31T05:30:43.193Z,100709.84
2022-12-31T05:33:10.394Z,100715.37
2022-12-31T05:35:37.211Z,100710.09
2022-12-31T05:38:03.886Z,100715.44
2022-12-31T05:40:30.514Z,100722.97
2022-12-31T05:42:57.118Z,100736.81
2022-12-31T05:45:30.109Z,100732.31
2022-12-31T05:47:57.440Z,100733.84
2022-12-31T05:50:24.053Z,100741.75
2022-12-31T05:52:50.722Z,100744.12
2022-12-31T05:55:17.408Z,100752.13
2022-12-31T05:57:44.040Z,100752.00
2022-12-31T06:00:11.660Z,100749.31
2022-12-31T06:02:38.284Z,100745.53
2022-12-31T06:05:05.388Z,100754.12
2022-12-31T06:07:31.977Z,100759.94
2022-12-31T06:09:58.658Z,100747.88
2022-12-31T06:12:25.255Z,100748.59
2022-12-31T06:14:51.810Z,100745.47
2022-12-31T06:17:19.305Z,100741.00
2022-12-31T06:19:47.012Z,100748.00
2022-12-31T06:22:13.906Z,100754.63
2022-12-31T06:24:42.276Z,100752.25
2022-12-31T06:27:09.101Z,100744.19
2022-12-31T06:29:35.715Z,100741.34
2022-12-31T06:32:02.356Z,100733.53
2022-12-31T06:34:28.929Z,100749.37
2022-12-31T06:36:55.473Z,100760.31
2022-12-31T06:39:22.051Z,100762.31
2022-12-31T06:41:48.639Z,100762.13
2022-12-31T06:44:15.312Z,100770.16
2022-12-31T06:46:42.976Z,100778.16
2022-12-31T06:49:09.735Z,100769.50
2022-12-31T06:51:36.297Z,100767.97
2022-12-31T06:54:05.585Z,100779.53
2022-12-31T06:56:34.673Z,100766.19
2022-12-31T06:59:03.095Z,100761.28
2022-12-31T07:01:39.745Z,100768.91
2022-12-31T07:04:28.202Z,100775.34
2022-12-31T07:07:32.508Z,100772.25
2022-12-31T07:10:49.832Z,100774.81
2022-12-31T07:13:26.574Z,100780.97
2022-12-31T07:16:20.468Z,100791.94
2022-12-31T07:19:05.832Z,100785.63
2022-12-31T07:21:38.440Z,100780.69
2022-12-31T07:24:07.317Z,100786.81
2022-12-31T07:26:56.964Z,100782.81
2022-12-31T07:29:57.722Z,100792.44
2022-12-31T07:32:29.864Z,100796.03
2022-12-31T07:35:28.443Z,100795.66
2022-12-31T07:38:12.285Z,100804.75
2022-12-31T07:41:10.175Z,100806.97
2022-12-31T07:44:09.649Z,100796.06
2022-12-31T07:46:43.978Z,100806.53
2022-12-31T07:49:14.291Z,100798.72
2022-12-31T07:51:42.138Z,100814.31
2022-12-31T07:54:13.571Z,100815.75
2022-12-31T07:56:41.069Z,100822.63
2022-12-31T07:59:24.587Z,100813.97
2022-12-31T08:02:22.527Z,100823.91
2022-12-31T08:05:26.435Z,100806.41
2022-12-31T08:08:15.703Z,100811.69
2022-12-31T08:10:59.935Z,100815.69
2022-12-31T08:13:27.380Z,100824.13
2022-12-31T08:15:54.354Z,100839.09
2022-12-31T08:18:21.179Z,100838.69
2022-12-31T08:21:20.638Z,100846.19
2022-12-31T08:24:28.624Z,100854.06
2022-12-31T08:27:08.169Z,100842.56
2022-12-31T08:29:42.409Z,100857.59
2022-12-31T08:32:17.851Z,100864.03
2022-12-31T08:35:14.852Z,100876.97
2022-12-31T08:37:50.296Z,100878.84
2022-12-31T08:40:26.348Z,100889.66
2022-12-31T08:43:05.106Z,100895.38
2022-12-31T08:45:41.848Z,100910.09
2022-12-31T08:48:25.134Z,100912.09
2022-12-31T08:50:51.708Z,100898.47
2022-12-31T08:53:18.590Z,100901.53
2022-12-31T08:55:48.235Z,100907.72
2022-12-31T08:58:42.486Z,100900.97
2022-12-31T09:01:10.625Z,100884.34
2022-12-31T09:03:58.450Z,100889.72
2022-12-31T09:06:53.907Z,100904.84
2022-12-31T09:09:46.733Z,100900.78
2022-12-31T09:12:38.397Z,100907.53
2022-12-31T09:15:25.591Z,100893.66
2022-12-31T09:17:52.580Z,100899.75
2022-12-31T09:20:42.978Z,100903.31
2022-12-31T09:23:14.601Z,100899.69
2022-12-31T09:25:50.915Z,100897.38
2022-12-31T09:28:54.489Z,100894.84
2022-12-31T09:31:54.248Z,100887.56
2022-12-31T09:34:45.966Z,100887.84
2022-12-31T09:37:22.276Z,100864.06
2022-12-31T09:39:49.341Z,100876.03
2022-12-31T09:42:27.934Z,100864.00
2022-12-31T09:45:12.803Z,100867.78
2022-12-31T09:48:00.338Z,100868.28
2022-12-31T09:50:32.848Z,100854.50
2022-12-31T09:53:14.898Z,100853.66
2022-12-31T09:55:57.578Z,100848.72
2022-12-31T09:58:40.896Z,100850.69
2022-12-31T10:01:07.501Z,100846.16
2022-12-31T10:03:46.231Z,100838.00
2022-12-31T10:06:31.882Z,100840.78
2022-12-31T10:09:30.998Z,100834.69
2022-12-31T10:12:00.380Z,100830.88
2022-12-31T10:14:35.950Z,100824.13
2022-12-31T10:17:02.496Z,100833.97
2022-12-31T10:19:53.444Z,100842.94
2022-12-31T10:22:45.482Z,100842.78
2022-12-31T10:25:14.980Z,100835.94
2022-12-31T10:28:03.607Z,100833.13
2022-12-31T10:30:34.495Z,100828.47
2022-12-31T10:33:18.276Z,100839.47
2022-12-31T10:36:13.312Z,100850.91
2022-12-31T10:39:15.338Z,100856.94
2022-12-31T10:42:06.837Z,100862.41
2022-12-31T10:44:42.683Z,100839.75
2022-12-31T10:47:30.750Z,100835.84
2022-12-31T10:50:34.948Z,100840.81
2022-12-31T10:53:18.148Z,100839.47
2022-12-31T10:55:44.547Z,100860.72
2022-12-31T10:58:33.039Z,100845.44
2022-12-31T11:01:11.961Z,100845.66
2022-12-31T11:03:47.951Z,100852.47
2022-12-31T11:06:32.557Z,100841.97
2022-12-31T11:09:59.546Z,100844.75
2022-12-31T11:12:41.048Z,100852.44
2022-12-31T11:15:16.516Z,100840.66
2022-12-31T11:17:59.475Z,100802.84
2022-12-31T11:20:50.124Z,100805.63
2022-12-31T11:23:30.650Z,100836.56
2022-12-31T11:26:24.684Z,100828.22
2022-12-31T11:29:16.518Z,100818.62
2022-12-31T11:32:02.110Z,100819.28
2022-12-31T11:38:25.878Z,100809.91
2022-12-31T11:41:03.495Z,100809.91
2022-12-31T11:43:40.842Z,100805.78
2022-12-31T11:46:10.411Z,100825.50
2022-12-31T11:48:44.362Z,100818.69
2022-12-31T11:51:58.268Z,100824.03
2022-12-31T11:54:33.917Z,100811.72
2022-12-31T11:57:16.421Z,100797.28
2022-12-31T11:59:43.783Z,100794.09
2022-12-31T12:02:26.167Z,100798.03
2022-12-31T12:04:55.092Z,100818.97
2022-12-31T12:07:24.052Z,100828.97
2022-12-31T12:09:53.277Z,100832.09
2022-12-31T12:12:19.970Z,100832.88
2022-12-31T12:14:54.001Z,100832.53
2022-12-31T12:17:32.696Z,100827.53
2022-12-31T12:20:16.968Z,100826.38
2022-12-31T12:22:56.326Z,100819.87
2022-12-31T12:25:26.105Z,100831.56
2022-12-31T12:28:38.403Z,100820.59
2022-12-31T12:31:34.183Z,100831.56
2022-12-31T12:34:00.876Z,100831.38
2022-12-31T12:36:27.416Z,100820.00
2022-12-31T12:39:05.202Z,100834.44
2022-12-31T12:41:32.793Z,100836.09
2022-12-31T12:44:08.842Z,100836.25
2022-12-31T12:47:16.128Z,100824.00
2022-12-31T12:50:13.791Z,100814.84
2022-12-31T12:52:56.408Z,100814.44
2022-12-31T12:55:52.022Z,100817.09
2022-12-31T12:58:30.453Z,100809.87
2022-12-31T13:01:37.359Z,100806.53
2022-12-31T13:07:14.139Z,100806.44
2022-12-31T13:10:22.210Z,100797.41
2022-12-31T13:13:23.914Z,100799.75
2022-12-31T13:15:57.851Z,100812.72
2022-12-31T13:18:30.217Z,100808.94
2022-12-31T13:24:59.144Z,100821.91
2022-12-31T13:27:33.851Z,100823.97
2022-12-31T13:30:03.931Z,100816.75
2022-12-31T13:32:40.674Z,100830.13
2022-12-31T13:35:23.476Z,100816.75
2022-12-31T13:37:57.793Z,100826.34
2022-12-31T13:40:35.453Z,100833.50
2022-12-31T13:43:18.170Z,100844.44
2022-12-31T13:45:47.367Z,100857.81
2022-12-31T13:48:20.237Z,100826.38
2022-12-31T13:51:01.790Z,100836.59
2022-12-31T13:53:42.345Z,100847.53
2022-12-31T14:00:19.686Z,100840.31
2022-12-31T14:03:02.401Z,100830.34
2022-12-31T14:05:32.348Z,100838.38
2022-12-31T14:08:01.704Z,100836.47
2022-12-31T14:10:41.662Z,100846.75
2022-12-31T14:16:22.317Z,100838.88
2022-12-31T14:19:07.559Z,100847.44
2022-12-31T14:21:54.542Z,100848.38
2022-12-31T14:24:42.095Z,100857.72
2022-12-31T14:27:24.511Z,100858.84
2022-12-31T14:30:13.494Z,100850.41
2022-12-31T14:35:34.468Z,100861.19
2022-12-31T14:38:19.722Z,100863.03
2022-12-31T14:41:09.989Z,100870.22
2022-12-31T14:43:56.994Z,100871.56
2022-12-31T14:46:42.327Z,100864.03
2022-12-31T14:49:51.742Z,100856.75
2022-12-31T14:52:25.128Z,100849.56
2022-12-31T14:55:18.266Z,100853.06
2022-12-31T14:58:26.003Z,100859.56
2022-12-31T15:04:45.974Z,100863.34
2022-12-31T15:07:34.732Z,100862.03
2022-12-31T15:10:49.354Z,100861.44
2022-12-31T15:13:26.309Z,100853.03
2022-12-31T15:16:11.188Z,100855.47
2022-12-31T15:24:27.476Z,100858.47
2022-12-31T15:27:14.917Z,100857.13
2022-12-31T15:29:45.685Z,100843.75
2022-12-31T15:32:22.533Z,100845.22
2022-12-31T15:49:23.394Z,100849.97
2022-12-31T15:54:39.266Z,100862.91
2022-12-31T15:57:11.466Z,100862.72
2022-12-31T15:59:40.390Z,100867.94
2022-12-31T16:02:21.250Z,100863.94
2022-12-31T16:04:48.903Z,100873.38
2022-12-31T16:07:17.193Z,100874.72
2022-12-31T16:10:26.750Z,100869.94
2022-12-31T16:13:19.559Z,100865.03
2022-12-31T16:15:50.130Z,100861.72
2022-12-31T16:18:22.526Z,100865.19
2022-12-31T16:20:51.931Z,100878.41
2022-12-31T18:10:29.312Z,100904.25
2022-12-31T18:48:03.780Z,100897.50
2022-12-31T18:50:30.364Z,100904.97
2022-12-31T18:52:56.947Z,100912.91
2022-12-31T18:55:36.260Z,100909.62
2022-12-31T18:58:02.843Z,100914.81
2022-12-31T19:01:00.601Z,100918.37
2022-12-31T19:06:56.095Z,100922.03
2022-12-31T19:09:44.787Z,100923.31
2022-12-31T19:12:13.320Z,100920.88
2022-12-31T19:14:40.008Z,100914.34
2022-12-31T19:19:32.010Z,100915.78
2022-12-31T19:21:58.604Z,100916.38
2022-12-31T19:24:26.953Z,100918.72
2022-12-31T19:26:54.502Z,100919.41
2022-12-31T19:29:46.072Z,100921.31
2022-12-31T19:32:12.639Z,100919.56
2022-12-31T19:37:27.568Z,100921.22
2022-12-31T19:39:54.130Z,100918.97
2022-12-31T19:42:22.886Z,100916.25
2022-12-31T19:44:49.437Z,100912.72
2022-12-31T19:47:15.991Z,100912.47
2022-12-31T19:50:06.618Z,100915.78
2022-12-31T19:56:05.290Z,100918.97
2022-12-31T19:58:32.267Z,100912.34
2022-12-31T20:01:02.894Z,100914.47
2022-12-31T20:03:32.597Z,100913.44
2022-12-31T20:06:08.722Z,100916.72
2022-12-31T20:08:37.844Z,100910.91
2022-12-31T20:11:22.245Z,100909.88
2022-12-31T20:13:50.196Z,100906.09
2022-12-31T20:16:18.816Z,100913.44
2022-12-31T20:18:47.576Z,100903.38
2022-12-31T20:21:39.235Z,100898.06
2022-12-31T20:24:28.413Z,100895.69
2022-12-31T20:41:41.724Z,100904.09
2022-12-31T20:44:08.438Z,100896.62
2022-12-31T20:46:35.220Z,100901.84
2022-12-31T20:49:03.629Z,100895.59
2022-12-31T20:51:32.805Z,100887.44
2022-12-31T20:54:24.306Z,100893.22
2022-12-31T20:57:47.033Z,100896.41
2022-12-31T21:00:28.878Z,100904.09
2022-12-31T21:03:04.923Z,100894.41
2022-12-31T21:05:37.463Z,100900.19
2022-12-31T21:08:04.286Z,100890.16
2022-12-31T21:10:30.866Z,100894.72
2022-12-31T21:12:57.431Z,100896.06
2022-12-31T21:15:43.017Z,100895.94
2022-12-31T21:18:09.630Z,100894.59
2022-12-31T21:20:36.175Z,100893.38
2022-12-31T21:23:02.781Z,100895.38
2022-12-31T21:25:57.556Z,100894.97
2022-12-31T21:28:45.768Z,100903.94
2022-12-31T21:31:13.847Z,100906.53
2022-12-31T21:33:45.129Z,100917.75
2022-12-31T21:36:12.030Z,100912.44
2022-12-31T21:38:39.043Z,100923.09
2022-12-31T21:41:07.662Z,100925.53
2022-12-31T21:43:53.470Z,100922.47
2022-12-31T21:46:20.372Z,100926.13
2022-12-31T21:48:46.923Z,100924.03
2022-12-31T21:51:16.710Z,100931.56
2022-12-31T22:00:59.511Z,100933.25
2022-12-31T22:03:28.740Z,100928.00
2022-12-31T22:06:00.014Z,100930.06
2022-12-31T22:08:28.283Z,100947.66
2022-12-31T22:10:55.167Z,100947.78
2022-12-31T22:16:04.650Z,100932.44
2022-12-31T22:18:35.050Z,100939.59
2022-12-31T22:21:04.409Z,100935.72
2022-12-31T22:23:32.346Z,100927.47
2022-12-31T22:25:59.054Z,100936.78
2022-12-31T22:29:34.574Z,100939.88
2022-12-31T22:32:31.707Z,100939.72
2022-12-31T22:34:58.286Z,100928.91
2022-12-31T22:37:55.589Z,100925.34
2022-12-31T22:40:11.777Z,100930.09
2022-12-31T22:42:38.483Z,100932.56
2022-12-31T22:45:06.690Z,100938.72
2022-12-31T22:47:57.708Z,100930.09
2022-12-31T22:50:24.253Z,100928.75
2022-12-31T22:52:50.815Z,100929.84
2022-12-31T22:55:17.396Z,100925.13
2022-12-31T23:02:41.553Z,100918.94
2022-12-31T23:05:15.223Z,100910.50
2022-12-31T23:07:43.330Z,100927.91
2022-12-31T23:10:29.575Z,100925.37
2022-12-31T23:12:56.133Z,100913.16
2022-12-31T23:15:41.380Z,100907.94
2022-12-31T23:18:43.549Z,100911.81
2022-12-31T23:21:28.769Z,100919.03
2022-12-31T23:23:55.378Z,100913.75
2022-12-31T23:26:21.941Z,100911.03
2022-12-31T23:29:51.142Z,100907.00
2022-12-31T23:32:41.888Z,100917.63
2022-12-31T23:35:10.013Z,100924.38
2022-12-31T23:37:37.034Z,100924.50
2022-12-31T23:40:04.055Z,100923.53
2022-12-31T23:42:30.581Z,100917.88
2022-12-31T23:44:57.163Z,100931.66
2022-12-31T23:49:58.958Z,100938.19
2022-12-31T23:52:25.542Z,100931.91
2022-12-31T23:55:11.498Z,100936.81
2022-12-31T23:57:38.044Z,100923.28
